createdAt,value
2022-12-11T00:01:25.394Z,-0.23
2022-12-11T00:03:55.200Z,-0.24
2022-12-11T00:06:24.846Z,-0.25
2022-12-11T00:08:55.127Z,-0.28
2022-12-11T00:11:26.725Z,-0.31
2022-12-11T00:13:55.995Z,-0.33
2022-12-11T00:16:27.390Z,-0.34
2022-12-11T00:18:56.434Z,-0.35
2022-12-11T00:21:25.007Z,-0.34
2022-12-11T00:23:53.969Z,-0.32
2022-12-11T00:26:22.914Z,-0.32
2022-12-11T00:28:57.644Z,-0.33
2022-12-11T00:31:26.590Z,-0.35
2022-12-11T00:33:57.451Z,-0.37
2022-12-11T00:36:27.385Z,-0.38
2022-12-11T00:38:56.150Z,-0.38
2022-12-11T00:41:24.959Z,-0.37
2022-12-11T00:43:53.977Z,-0.36
2022-12-11T00:46:22.984Z,-0.39
2022-12-11T00:48:51.918Z,-0.41
2022-12-11T00:51:22.832Z,-0.41
2022-12-11T00:53:52.887Z,-0.41
2022-12-11T00:56:22.705Z,-0.42
2022-12-11T00:58:51.805Z,-0.40
2022-12-11T01:01:23.379Z,-0.40
2022-12-11T01:03:56.316Z,-0.39
2022-12-11T01:06:27.233Z,-0.40
2022-12-11T01:09:15.411Z,-0.42
2022-12-11T01:11:44.825Z,-0.43
2022-12-11T01:14:14.144Z,-0.46
2022-12-11T01:16:44.422Z,-0.48
2022-12-11T01:19:13.541Z,-0.50
2022-12-11T01:21:42.207Z,-0.51
2022-12-11T01:24:12.149Z,-0.53
2022-12-11T01:26:40.927Z,-0.53
2022-12-11T01:29:09.706Z,-0.51
2022-12-11T01:31:39.625Z,-0.49
2022-12-11T01:34:08.206Z,-0.50
2022-12-11T01:36:39.060Z,-0.51
2022-12-11T01:39:07.934Z,-0.53
2022-12-11T01:41:36.533Z,-0.54
2022-12-11T01:44:29.474Z,-0.54
2022-12-11T01:46:58.925Z,-0.54
2022-12-11T01:49:28.286Z,-0.55
2022-12-11T01:52:04.335Z,-0.57
2022-12-11T01:54:33.348Z,-0.58
2022-12-11T01:57:07.424Z,-0.59
2022-12-11T01:59:38.896Z,-0.59
2022-12-11T02:02:20.009Z,-0.60
2022-12-11T02:04:49.792Z,-0.62
2022-12-11T02:07:18.475Z,-0.64
2022-12-11T02:09:48.160Z,-0.65
2022-12-11T02:12:35.380Z,-0.65
2022-12-11T02:15:16.876Z,-0.63
2022-12-11T02:17:55.082Z,-0.63
2022-12-11T02:20:28.605Z,-0.64
2022-12-11T02:23:03.106Z,-0.63
2022-12-11T02:25:33.636Z,-0.64
2022-12-11T02:28:23.404Z,-0.65
2022-12-11T02:30:56.163Z,-0.65
2022-12-11T02:33:42.813Z,-0.67
2022-12-11T02:36:12.510Z,-0.70
2022-12-11T02:38:43.012Z,-0.73
2022-12-11T02:41:12.437Z,-0.75
2022-12-11T02:43:42.350Z,-0.76
2022-12-11T02:46:11.826Z,-0.75
2022-12-11T02:48:41.318Z,-0.76
2022-12-11T02:51:10.581Z,-0.77
2022-12-11T02:53:41.597Z,-0.76
2022-12-11T02:56:20.990Z,-0.75
2022-12-11T02:58:58.533Z,-0.76
2022-12-11T03:01:28.017Z,-0.77
2022-12-11T03:03:57.123Z,-0.77
2022-12-11T03:06:33.819Z,-0.77
2022-12-11T03:09:03.222Z,-0.78
2022-12-11T03:11:31.899Z,-0.80
2022-12-11T03:14:03.372Z,-0.82
2022-12-11T03:16:36.937Z,-0.81
2022-12-11T03:19:33.011Z,-0.81
2022-12-11T03:22:10.582Z,-0.82
2022-12-11T03:24:40.701Z,-0.84
2022-12-11T03:27:31.399Z,-0.85
2022-12-11T03:30:06.316Z,-0.86
2022-12-11T03:33:02.334Z,-0.88
2022-12-11T03:35:38.419Z,-0.90
2022-12-11T03:38:11.834Z,-0.91
2022-12-11T03:40:42.964Z,-0.92
2022-12-11T03:43:12.142Z,-0.92
2022-12-11T03:45:42.444Z,-0.90
2022-12-11T03:48:12.677Z,-0.92
2022-12-11T03:50:43.344Z,-0.94
2022-12-11T03:53:12.519Z,-0.97
2022-12-11T03:55:41.304Z,-1.01
2022-12-11T03:58:10.000Z,-1.04
2022-12-11T04:00:38.965Z,-1.06
2022-12-11T04:03:14.286Z,-1.06
2022-12-11T04:05:46.710Z,-1.06
2022-12-11T04:08:17.364Z,-1.06
2022-12-11T04:10:46.122Z,-1.05
2022-12-11T04:13:14.899Z,-1.05
2022-12-11T04:15:43.734Z,-1.06
2022-12-11T04:18:31.103Z,-1.06
2022-12-11T04:21:18.564Z,-1.07
2022-12-11T04:24:06.284Z,-1.08
2022-12-11T04:26:35.174Z,-1.08
2022-12-11T04:29:04.154Z,-1.09
2022-12-11T04:31:32.925Z,-1.10
2022-12-11T04:34:01.836Z,-1.11
2022-12-11T04:36:30.516Z,-1.11
2022-12-11T04:38:59.504Z,-1.11
2022-12-11T04:41:28.300Z,-1.12
2022-12-11T04:43:56.879Z,-1.12
2022-12-11T04:46:26.109Z,-1.12
2022-12-11T04:48:57.577Z,-1.10
2022-12-11T04:51:28.465Z,-1.10
2022-12-11T04:53:58.985Z,-1.10
2022-12-11T04:56:27.467Z,-1.10
2022-12-11T04:58:56.189Z,-1.10
2022-12-11T05:01:25.106Z,-1.11
2022-12-11T05:03:53.946Z,-1.14
2022-12-11T05:06:22.847Z,-1.15
2022-12-11T05:08:51.826Z,-1.16
2022-12-11T05:11:20.427Z,-1.16
2022-12-11T05:13:49.428Z,-1.16
2022-12-11T05:16:18.372Z,-1.16
2022-12-11T05:18:48.127Z,-1.16
2022-12-11T05:21:16.890Z,-1.16
2022-12-11T05:23:45.575Z,-1.15
2022-12-11T05:26:17.868Z,-1.17
2022-12-11T05:28:47.785Z,-1.19
2022-12-11T05:31:19.256Z,-1.22
2022-12-11T05:33:49.347Z,-1.23
2022-12-11T05:36:26.814Z,-1.24
2022-12-11T05:38:55.627Z,-1.24
2022-12-11T05:41:27.165Z,-1.24
2022-12-11T05:43:55.967Z,-1.25
2022-12-11T05:46:27.276Z,-1.27
2022-12-11T05:49:00.161Z,-1.29
2022-12-11T05:51:30.448Z,-1.30
2022-12-11T05:53:58.986Z,-1.29
2022-12-11T05:56:33.108Z,-1.29
2022-12-11T05:59:04.247Z,-1.29
2022-12-11T06:01:36.969Z,-1.28
2022-12-11T06:04:07.430Z,-1.28
2022-12-11T06:06:36.920Z,-1.31
2022-12-11T06:09:07.287Z,-1.32
2022-12-11T06:11:36.486Z,-1.33
2022-12-11T06:14:05.160Z,-1.33
2022-12-11T06:16:33.983Z,-1.35
2022-12-11T06:19:03.790Z,-1.35
2022-12-11T06:21:33.474Z,-1.36
2022-12-11T06:24:04.312Z,-1.35
2022-12-11T06:26:33.094Z,-1.35
2022-12-11T06:29:01.671Z,-1.35
2022-12-11T06:31:31.215Z,-1.34
2022-12-11T06:34:00.141Z,-1.33
2022-12-11T06:36:29.067Z,-1.32
2022-12-11T06:38:57.657Z,-1.32
2022-12-11T06:41:26.556Z,-1.32
2022-12-11T06:43:55.437Z,-1.32
2022-12-11T06:46:24.199Z,-1.32
2022-12-11T06:48:52.797Z,-1.31
2022-12-11T06:51:23.417Z,-1.30
2022-12-11T06:53:53.772Z,-1.29
2022-12-11T06:56:23.173Z,-1.26
2022-12-11T06:58:52.357Z,-1.25
2022-12-11T07:01:23.863Z,-1.23
2022-12-11T07:03:57.339Z,-1.23
2022-12-11T07:06:27.399Z,-1.22
2022-12-11T07:08:56.229Z,-1.21
2022-12-11T07:11:25.430Z,-1.21
2022-12-11T07:13:55.126Z,-1.22
2022-12-11T07:16:23.774Z,-1.22
2022-12-11T07:18:53.004Z,-1.22
2022-12-11T07:21:22.309Z,-1.21
2022-12-11T07:23:51.308Z,-1.20
2022-12-11T07:26:23.227Z,-1.18
2022-12-11T07:28:54.404Z,-1.20
2022-12-11T07:31:25.284Z,-1.21
2022-12-11T07:34:04.474Z,-1.21
2022-12-11T07:36:34.187Z,-1.22
2022-12-11T07:39:03.989Z,-1.23
2022-12-11T07:41:33.607Z,-1.24
2022-12-11T07:44:03.429Z,-1.27
2022-12-11T07:46:33.965Z,-1.30
2022-12-11T07:49:03.165Z,-1.33
2022-12-11T07:51:34.224Z,-1.33
2022-12-11T07:54:05.692Z,-1.32
2022-12-11T07:56:35.757Z,-1.32
2022-12-11T07:59:05.777Z,-1.32
2022-12-11T08:01:36.798Z,-1.33
2022-12-11T08:04:10.415Z,-1.34
2022-12-11T08:06:40.430Z,-1.34
2022-12-11T08:09:17.456Z,-1.34
2022-12-11T08:11:51.529Z,-1.32
2022-12-11T08:14:21.326Z,-1.31
2022-12-11T08:16:50.320Z,-1.30
2022-12-11T08:19:19.111Z,-1.28
2022-12-11T08:21:47.904Z,-1.27
2022-12-11T08:24:20.806Z,-1.26
2022-12-11T08:26:49.887Z,-1.25
2022-12-11T08:29:18.667Z,-1.24
2022-12-11T08:31:47.769Z,-1.24
2022-12-11T08:34:16.668Z,-1.27
2022-12-11T08:36:46.032Z,-1.29
2022-12-11T08:39:15.028Z,-1.31
2022-12-11T08:41:43.847Z,-1.33
2022-12-11T08:44:16.653Z,-1.34
2022-12-11T08:46:47.048Z,-1.35
2022-12-11T08:49:16.951Z,-1.32
2022-12-11T08:51:46.461Z,-1.29
2022-12-11T08:54:15.247Z,-1.28
2022-12-11T08:56:44.036Z,-1.27
2022-12-11T08:59:13.047Z,-1.26
2022-12-11T09:01:42.331Z,-1.25
2022-12-11T09:04:11.448Z,-1.25
2022-12-11T09:06:42.872Z,-1.23
2022-12-11T09:09:13.557Z,-1.23
2022-12-11T09:11:48.550Z,-1.25
2022-12-11T09:14:17.122Z,-1.25
2022-12-11T09:16:47.988Z,-1.27
2022-12-11T09:19:18.031Z,-1.28
2022-12-11T09:21:48.109Z,-1.30
2022-12-11T09:24:17.606Z,-1.33
2022-12-11T09:26:47.728Z,-1.35
2022-12-11T09:29:17.548Z,-1.36
2022-12-11T09:31:49.656Z,-1.38
2022-12-11T09:34:24.792Z,-1.38
2022-12-11T09:36:57.832Z,-1.39
2022-12-11T09:39:26.918Z,-1.39
2022-12-11T09:42:04.925Z,-1.39
2022-12-11T09:44:45.736Z,-1.39
2022-12-11T09:47:38.014Z,-1.39
2022-12-11T09:50:10.730Z,-1.40
2022-12-11T09:52:45.867Z,-1.42
2022-12-11T09:55:25.299Z,-1.44
2022-12-11T09:58:26.373Z,-1.45
2022-12-11T10:01:10.865Z,-1.46
2022-12-11T10:04:05.835Z,-1.46
2022-12-11T10:06:43.088Z,-1.45
2022-12-11T10:09:20.529Z,-1.44
2022-12-11T10:12:08.012Z,-1.45
2022-12-11T10:15:02.983Z,-1.45
2022-12-11T10:17:33.441Z,-1.43
2022-12-11T10:20:40.822Z,-1.41
2022-12-11T10:23:20.468Z,-1.42
2022-12-11T10:25:54.283Z,-1.43
2022-12-11T10:28:24.198Z,-1.44
2022-12-11T10:31:02.962Z,-1.46
2022-12-11T10:33:58.956Z,-1.48
2022-12-11T10:36:33.480Z,-1.48
2022-12-11T10:39:02.582Z,-1.48
2022-12-11T10:41:39.581Z,-1.48
2022-12-11T10:44:23.073Z,-1.49
2022-12-11T10:47:15.905Z,-1.49
2022-12-11T10:49:56.389Z,-1.49
2022-12-11T10:52:27.847Z,-1.48
2022-12-11T10:55:05.423Z,-1.49
2022-12-11T10:57:39.446Z,-1.48
2022-12-11T11:00:09.950Z,-1.48
2022-12-11T11:02:40.591Z,-1.49
2022-12-11T11:05:26.234Z,-1.49
2022-12-11T11:08:19.918Z,-1.47
2022-12-11T11:10:56.984Z,-1.45
2022-12-11T11:13:27.920Z,-1.43
2022-12-11T11:16:02.188Z,-1.40
2022-12-11T11:18:31.906Z,-1.38
2022-12-11T11:21:01.912Z,-1.37
2022-12-11T11:23:31.207Z,-1.40
2022-12-11T11:26:02.008Z,-1.45
2022-12-11T11:28:37.511Z,-1.46
2022-12-11T11:31:09.595Z,-1.48
2022-12-11T11:33:55.648Z,-1.48
2022-12-11T11:36:30.523Z,-1.48
2022-12-11T11:39:21.067Z,-1.49
2022-12-11T11:42:15.796Z,-1.51
2022-12-11T11:45:04.580Z,-1.52
2022-12-11T11:47:43.967Z,-1.55
2022-12-11T11:50:18.477Z,-1.58
2022-12-11T11:52:51.587Z,-1.58
2022-12-11T11:55:33.274Z,-1.58
2022-12-11T11:58:16.604Z,-1.59
2022-12-11T12:00:45.487Z,-1.60
2022-12-11T12:03:19.977Z,-1.60
2022-12-11T12:05:57.397Z,-1.60
2022-12-11T12:08:46.867Z,-1.59
2022-12-11T12:11:37.990Z,-1.58
2022-12-11T12:14:43.514Z,-1.60
2022-12-11T12:17:22.928Z,-1.60
2022-12-11T12:19:55.248Z,-1.60
2022-12-11T12:22:53.623Z,-1.61
2022-12-11T12:25:42.168Z,-1.62
2022-12-11T12:28:38.507Z,-1.63
2022-12-11T12:31:42.172Z,-1.63
2022-12-11T12:34:59.027Z,-1.62
2022-12-11T12:37:30.887Z,-1.60
2022-12-11T12:40:02.744Z,-1.60
2022-12-11T12:42:39.845Z,-1.62
2022-12-11T12:45:24.657Z,-1.64
2022-12-11T12:47:53.899Z,-1.66
2022-12-11T12:50:25.693Z,-1.66
2022-12-11T12:52:55.162Z,-1.66
2022-12-11T12:55:27.552Z,-1.67
2022-12-11T12:58:02.050Z,-1.67
2022-12-11T13:00:40.121Z,-1.68
2022-12-11T13:03:23.892Z,-1.68
2022-12-11T13:06:05.503Z,-1.67
2022-12-11T13:08:48.509Z,-1.67
2022-12-11T13:11:19.410Z,-1.69
2022-12-11T13:14:02.673Z,-1.71
2022-12-11T13:16:42.960Z,-1.74
2022-12-11T13:19:24.112Z,-1.75
2022-12-11T13:22:22.824Z,-1.76
2022-12-11T13:25:00.191Z,-1.79
2022-12-11T13:27:41.088Z,-1.80
2022-12-11T13:30:16.148Z,-1.79
2022-12-11T13:33:04.230Z,-1.80
2022-12-11T13:35:34.450Z,-1.83
2022-12-11T13:38:17.545Z,-1.83
2022-12-11T13:40:50.877Z,-1.82
2022-12-11T13:43:24.006Z,-1.81
2022-12-11T13:45:57.039Z,-1.81
2022-12-11T13:48:33.134Z,-1.80
2022-12-11T13:51:03.630Z,-1.80
2022-12-11T13:53:35.038Z,-1.80
2022-12-11T13:56:14.644Z,-1.81
2022-12-11T13:58:43.658Z,-1.82
2022-12-11T14:01:23.541Z,-1.84
2022-12-11T14:04:07.325Z,-1.85
2022-12-11T14:06:37.748Z,-1.88
2022-12-11T14:09:07.627Z,-1.90
2022-12-11T14:11:42.112Z,-1.93
2022-12-11T14:14:21.407Z,-1.94
2022-12-11T14:16:52.080Z,-1.94
2022-12-11T14:19:22.883Z,-1.94
2022-12-11T14:22:04.476Z,-1.96
2022-12-11T14:24:33.546Z,-1.96
2022-12-11T14:27:05.131Z,-1.97
2022-12-11T14:29:34.305Z,-1.98
2022-12-11T14:32:05.517Z,-1.98
2022-12-11T14:34:44.915Z,-1.99
2022-12-11T14:37:16.116Z,-1.98
2022-12-11T14:39:47.059Z,-1.98
2022-12-11T14:42:22.125Z,-1.98
2022-12-11T14:44:55.857Z,-1.98
2022-12-11T14:47:39.521Z,-1.99
2022-12-11T14:50:17.412Z,-2.00
2022-12-11T14:52:54.224Z,-2.03
2022-12-11T14:55:25.028Z,-2.05
2022-12-11T14:57:59.905Z,-2.07
2022-12-11T15:00:36.624Z,-2.08
2022-12-11T15:03:22.596Z,-2.09
2022-12-11T15:05:54.803Z,-2.11
2022-12-11T15:08:28.793Z,-2.11
2022-12-11T15:11:14.939Z,-2.11
2022-12-11T15:14:01.851Z,-2.12
2022-12-11T15:16:34.692Z,-2.13
2022-12-11T15:19:04.551Z,-2.14
2022-12-11T15:21:38.771Z,-2.14
2022-12-11T15:24:19.652Z,-2.15
2022-12-11T15:26:49.521Z,-2.15
2022-12-11T15:29:42.992Z,-2.15
2022-12-11T15:32:14.759Z,-2.14
2022-12-11T15:34:52.262Z,-2.14
2022-12-11T15:37:28.840Z,-2.15
2022-12-11T15:40:00.225Z,-2.14
2022-12-11T15:42:35.006Z,-2.15
2022-12-11T15:45:07.871Z,-2.16
2022-12-11T15:47:36.769Z,-2.17
2022-12-11T15:50:19.733Z,-2.17
2022-12-11T15:52:51.785Z,-2.18
2022-12-11T15:55:22.044Z,-2.18
2022-12-11T15:57:57.490Z,-2.19
2022-12-11T16:00:28.483Z,-2.20
2022-12-11T16:02:58.059Z,-2.22
2022-12-11T16:05:28.400Z,-2.23
2022-12-11T16:08:00.642Z,-2.24
2022-12-11T16:10:31.598Z,-2.25
2022-12-11T16:13:01.225Z,-2.25
2022-12-11T16:15:30.474Z,-2.25
2022-12-11T16:18:10.897Z,-2.25
2022-12-11T16:20:43.362Z,-2.25
2022-12-11T16:23:15.463Z,-2.26
2022-12-11T16:25:45.898Z,-2.26
2022-12-11T16:28:18.510Z,-2.25
2022-12-11T16:30:48.072Z,-2.23
2022-12-11T16:33:19.964Z,-2.24
2022-12-11T16:35:50.302Z,-2.23
2022-12-11T16:38:19.804Z,-2.24
2022-12-11T16:40:50.035Z,-2.25
2022-12-11T16:43:20.810Z,-2.26
2022-12-11T16:45:57.308Z,-2.26
2022-12-11T16:48:27.137Z,-2.26
2022-12-11T16:50:59.105Z,-2.27
2022-12-11T16:53:28.303Z,-2.27
2022-12-11T16:55:58.221Z,-2.27
2022-12-11T16:58:28.276Z,-2.26
2022-12-11T17:01:03.930Z,-2.26
2022-12-11T17:03:33.779Z,-2.26
2022-12-11T17:06:07.744Z,-2.26
2022-12-11T17:08:38.899Z,-2.26
2022-12-11T17:11:12.164Z,-2.26
2022-12-11T17:13:41.954Z,-2.26
2022-12-11T17:16:14.094Z,-2.27
2022-12-11T17:18:47.967Z,-2.26
2022-12-11T17:21:19.922Z,-2.25
2022-12-11T17:23:50.858Z,-2.24
2022-12-11T17:26:22.400Z,-2.23
2022-12-11T17:28:56.212Z,-2.23
2022-12-11T17:31:29.257Z,-2.22
2022-12-11T17:34:03.898Z,-2.20
2022-12-11T17:36:35.042Z,-2.19
2022-12-11T17:39:06.833Z,-2.19
2022-12-11T17:41:37.306Z,-2.18
2022-12-11T17:44:12.988Z,-2.17
2022-12-11T17:46:43.602Z,-2.16
2022-12-11T17:49:14.569Z,-2.16
2022-12-11T17:51:45.162Z,-2.15
2022-12-11T17:54:15.694Z,-2.16
2022-12-11T17:56:45.821Z,-2.16
2022-12-11T17:59:15.540Z,-2.17
2022-12-11T18:01:46.864Z,-2.16
2022-12-11T18:04:18.431Z,-2.15
2022-12-11T18:06:48.461Z,-2.14
2022-12-11T18:09:19.393Z,-2.13
2022-12-11T18:11:49.608Z,-2.12
2022-12-11T18:14:20.762Z,-2.11
2022-12-11T18:16:52.234Z,-2.12
2022-12-11T18:19:24.062Z,-2.12
2022-12-11T18:21:59.320Z,-2.12
2022-12-11T18:24:33.582Z,-2.12
2022-12-11T18:27:05.208Z,-2.13
2022-12-11T18:29:35.301Z,-2.14
2022-12-11T18:32:07.162Z,-2.14
2022-12-11T18:34:40.137Z,-2.15
2022-12-11T18:37:10.681Z,-2.16
2022-12-11T18:39:43.140Z,-2.16
2022-12-11T18:45:06.331Z,-2.16
2022-12-11T18:47:37.973Z,-2.17
2022-12-11T18:50:13.603Z,-2.16
2022-12-11T18:52:43.849Z,-2.18
2022-12-11T18:55:15.659Z,-2.18
2022-12-11T18:57:46.752Z,-2.19
2022-12-11T19:00:20.749Z,-2.20
2022-12-11T19:02:53.842Z,-2.21
2022-12-11T19:05:26.632Z,-2.22
2022-12-11T19:08:02.603Z,-2.22
2022-12-11T19:10:33.599Z,-2.25
2022-12-11T19:13:05.310Z,-2.27
2022-12-11T19:15:40.252Z,-2.28
2022-12-11T19:18:12.318Z,-2.29
2022-12-11T19:20:50.619Z,-2.29
2022-12-11T19:23:25.731Z,-2.30
2022-12-11T19:25:55.643Z,-2.31
2022-12-11T19:28:28.532Z,-2.32
2022-12-11T19:30:59.753Z,-2.32
2022-12-11T19:33:35.947Z,-2.32
2022-12-11T19:36:10.842Z,-2.33
2022-12-11T19:38:42.638Z,-2.35
2022-12-11T19:41:41.209Z,-2.35
2022-12-11T19:44:12.319Z,-2.36
2022-12-11T19:46:45.755Z,-2.37
2022-12-11T19:49:20.851Z,-2.37
2022-12-11T19:51:51.935Z,-2.37
2022-12-11T19:54:22.435Z,-2.36
2022-12-11T19:56:56.918Z,-2.36
2022-12-11T19:59:34.808Z,-2.36
2022-12-11T20:02:05.778Z,-2.36
2022-12-11T20:04:43.817Z,-2.36
2022-12-11T20:07:14.760Z,-2.37
2022-12-11T20:09:45.108Z,-2.37
2022-12-11T20:12:20.733Z,-2.38
2022-12-11T20:14:51.849Z,-2.38
2022-12-11T20:17:25.885Z,-2.37
2022-12-11T20:19:58.074Z,-2.38
2022-12-11T20:22:28.959Z,-2.37
2022-12-11T20:25:00.865Z,-2.37
2022-12-11T20:27:31.681Z,-2.37
2022-12-11T20:30:02.220Z,-2.37
2022-12-11T20:32:36.031Z,-2.37
2022-12-11T20:35:09.524Z,-2.38
2022-12-11T20:37:41.582Z,-2.38
2022-12-11T20:40:14.809Z,-2.39
2022-12-11T20:42:47.493Z,-2.40
2022-12-11T20:45:19.246Z,-2.41
2022-12-11T20:47:49.838Z,-2.41
2022-12-11T20:50:20.477Z,-2.41
2022-12-11T20:52:51.937Z,-2.41
2022-12-11T20:55:23.870Z,-2.42
2022-12-11T20:57:56.972Z,-2.42
2022-12-11T21:00:27.858Z,-2.41
2022-12-11T21:02:58.117Z,-2.39
2022-12-11T21:05:28.228Z,-2.39
2022-12-11T21:07:59.290Z,-2.39
2022-12-11T21:10:28.807Z,-2.39
2022-12-11T21:12:58.713Z,-2.38
2022-12-11T21:15:31.285Z,-2.37
2022-12-11T21:18:02.044Z,-2.37
2022-12-11T21:20:32.287Z,-2.37
2022-12-11T21:23:01.653Z,-2.37
2022-12-11T21:25:32.303Z,-2.37
2022-12-11T21:28:02.654Z,-2.37
2022-12-11T21:30:32.112Z,-2.37
2022-12-11T21:33:04.603Z,-2.37
2022-12-11T21:35:33.941Z,-2.38
2022-12-11T21:38:02.900Z,-2.39
2022-12-11T21:40:31.981Z,-2.39
2022-12-11T21:43:01.128Z,-2.38
2022-12-11T21:48:18.838Z,-2.38
2022-12-11T21:50:47.919Z,-2.39
2022-12-11T21:53:17.064Z,-2.39
2022-12-11T21:55:46.119Z,-2.40
2022-12-11T21:58:14.800Z,-2.40
2022-12-11T22:00:45.954Z,-2.40
2022-12-11T22:03:15.661Z,-2.40
2022-12-11T22:06:02.800Z,-2.40
2022-12-11T22:08:42.620Z,-2.40
2022-12-11T22:11:11.620Z,-2.40
2022-12-11T22:13:40.701Z,-2.41
2022-12-11T22:16:10.098Z,-2.41
2022-12-11T22:18:39.501Z,-2.41
2022-12-11T22:21:08.399Z,-2.40
2022-12-11T22:23:40.865Z,-2.39
2022-12-11T22:26:11.455Z,-2.38
2022-12-11T22:28:41.420Z,-2.38
2022-12-11T22:31:13.222Z,-2.39
2022-12-11T22:33:43.972Z,-2.40
2022-12-11T22:36:13.299Z,-2.39
2022-12-11T22:38:42.200Z,-2.39
2022-12-11T22:41:18.872Z,-2.39
2022-12-11T22:43:51.139Z,-2.40
2022-12-11T22:46:22.051Z,-2.40
2022-12-11T22:48:51.062Z,-2.40
2022-12-11T22:51:20.059Z,-2.39
2022-12-11T22:53:48.963Z,-2.39
2022-12-11T22:56:17.528Z,-2.39
2022-12-11T22:58:46.740Z,-2.39
2022-12-11T23:01:18.712Z,-2.38
2022-12-11T23:03:48.029Z,-2.38
2022-12-11T23:06:22.922Z,-2.39
2022-12-11T23:08:55.289Z,-2.39
2022-12-11T23:11:28.504Z,-2.41
2022-12-11T23:13:58.819Z,-2.40
2022-12-11T23:16:29.026Z,-2.40
2022-12-11T23:18:58.543Z,-2.41
2022-12-11T23:21:28.870Z,-2.42
2022-12-11T23:23:58.891Z,-2.42
2022-12-11T23:26:28.612Z,-2.42
2022-12-11T23:28:58.916Z,-2.41
2022-12-11T23:31:29.117Z,-2.41
2022-12-11T23:33:58.146Z,-2.41
2022-12-11T23:36:28.782Z,-2.40
2022-12-11T23:38:57.860Z,-2.39
2022-12-11T23:41:26.448Z,-2.37
2022-12-11T23:43:55.647Z,-2.37
2022-12-11T23:46:25.965Z,-2.37
2022-12-11T23:48:55.571Z,-2.36
2022-12-11T23:51:25.793Z,-2.36
2022-12-11T23:53:55.055Z,-2.35
2022-12-11T23:56:29.176Z,-2.35
2022-12-11T23:58:58.301Z,-2.35
